createdAt,value
2018-09-21T00:00:52.514Z,76.16
2018-09-21T00:01:52.500Z,76.26
2018-09-21T00:02:52.493Z,76.36
2018-09-21T00:03:52.484Z,76.26
2018-09-21T00:04:52.468Z,76.36
2018-09-21T00:05:52.456Z,76.47
2018-09-21T00:06:52.448Z,76.77
2018-09-21T00:07:52.443Z,76.67
2018-09-21T00:08:52.422Z,76.36
2018-09-21T00:09:52.419Z,76.47
2018-09-21T00:10:52.401Z,76.47
2018-09-21T00:11:52.396Z,76.16
2018-09-21T00:12:52.381Z,76.56
2018-09-21T00:13:52.369Z,76.56
2018-09-21T00:14:52.356Z,77.17
2018-09-21T00:15:52.348Z,77.41
2018-09-21T00:16:52.337Z,77.72
2018-09-21T00:17:52.324Z,77.82
2018-09-21T00:18:52.318Z,78.13
2018-09-21T00:19:52.305Z,78.43
2018-09-21T00:20:52.293Z,78.02
2018-09-21T00:21:52.284Z,78.02
2018-09-21T00:22:52.269Z,77.72
2018-09-21T00:23:52.260Z,77.41
2018-09-21T00:24:52.248Z,77.11
2018-09-21T00:25:52.235Z,77.01
2018-09-21T00:26:52.225Z,77.01
2018-09-21T00:27:52.214Z,76.81
2018-09-21T00:28:52.204Z,76.81
2018-09-21T00:29:52.191Z,76.81
2018-09-21T00:30:52.186Z,76.91
2018-09-21T00:31:52.173Z,76.81
2018-09-21T00:32:52.163Z,76.97
2018-09-21T00:33:52.151Z,76.97
2018-09-21T00:34:52.139Z,77.01
2018-09-21T00:35:52.129Z,76.97
2018-09-21T00:36:52.116Z,76.97
2018-09-21T00:37:52.107Z,76.87
2018-09-21T00:38:52.098Z,76.87
2018-09-21T00:39:52.084Z,77.08
2018-09-21T00:40:52.072Z,76.87
2018-09-21T00:41:52.062Z,77.08
2018-09-21T00:42:52.049Z,77.08
2018-09-21T00:43:52.038Z,76.87
2018-09-21T00:44:52.028Z,77.17
2018-09-21T00:45:52.019Z,76.87
2018-09-21T00:46:52.006Z,76.77
2018-09-21T00:47:51.999Z,76.97
2018-09-21T00:48:51.987Z,76.87
2018-09-21T00:49:51.976Z,76.87
2018-09-21T00:50:51.964Z,77.08
2018-09-21T00:51:51.952Z,77.08
2018-09-21T00:52:51.941Z,77.28
2018-09-21T00:53:51.930Z,77.28
2018-09-21T00:54:51.920Z,77.17
2018-09-21T00:55:51.914Z,77.28
2018-09-21T00:56:51.900Z,77.28
2018-09-21T00:57:51.886Z,77.17
2018-09-21T00:58:51.877Z,77.38
2018-09-21T00:59:51.862Z,77.08
2018-09-21T01:00:51.858Z,77.08
2018-09-21T01:01:51.844Z,77.38
2018-09-21T01:02:51.833Z,77.78
2018-09-21T01:03:51.821Z,78.02
2018-09-21T01:04:51.812Z,78.43
2018-09-21T01:05:51.806Z,78.87
2018-09-21T01:06:51.786Z,79.28
2018-09-21T01:07:51.778Z,79.82
2018-09-21T01:08:51.766Z,80.13
2018-09-21T01:09:51.752Z,80.54
2018-09-21T01:10:51.743Z,80.63
2018-09-21T01:11:51.731Z,80.78
2018-09-21T01:12:51.719Z,80.78
2018-09-21T01:13:51.707Z,80.63
2018-09-21T01:14:51.697Z,80.67
2018-09-21T01:15:51.685Z,80.67
2018-09-21T01:16:51.676Z,80.74
2018-09-21T01:17:51.663Z,80.63
2018-09-21T01:18:51.655Z,80.63
2018-09-21T01:19:51.642Z,80.74
2018-09-21T01:20:51.635Z,80.63
2018-09-21T01:21:51.621Z,80.33
2018-09-21T01:22:51.610Z,80.43
2018-09-21T01:23:51.597Z,79.68
2018-09-21T01:24:51.588Z,79.48
2018-09-21T01:25:51.577Z,79.38
2018-09-21T01:26:51.565Z,79.38
2018-09-21T01:27:51.553Z,79.38
2018-09-21T01:28:51.544Z,79.68
2018-09-21T01:29:51.534Z,79.68
2018-09-21T01:30:51.522Z,80.02
2018-09-21T01:31:51.514Z,80.23
2018-09-21T01:32:51.614Z,80.43
2018-09-21T01:33:51.487Z,80.54
2018-09-21T01:34:51.478Z,80.84
2018-09-21T01:35:51.465Z,80.98
2018-09-21T01:36:51.456Z,81.18
2018-09-21T01:37:51.447Z,81.39
2018-09-21T01:38:51.433Z,81.39
2018-09-21T01:39:51.424Z,81.39
2018-09-21T01:40:51.416Z,81.39
2018-09-21T01:41:51.404Z,81.49
2018-09-21T01:42:51.391Z,81.49
2018-09-21T01:43:51.379Z,81.28
2018-09-21T01:44:51.365Z,81.28
2018-09-21T01:45:51.361Z,81.28
2018-09-21T01:46:51.352Z,81.18
2018-09-21T01:47:51.334Z,81.28
2018-09-21T01:48:51.323Z,81.08
2018-09-21T01:49:51.310Z,80.94
2018-09-21T01:50:51.306Z,80.74
2018-09-21T01:51:51.290Z,80.63
2018-09-21T01:52:51.279Z,80.84
2018-09-21T01:53:51.269Z,80.63
2018-09-21T01:54:51.259Z,80.63
2018-09-21T01:55:51.246Z,80.74
2018-09-21T01:56:51.235Z,80.74
2018-09-21T01:57:51.225Z,80.84
2018-09-21T01:58:51.214Z,80.74
2018-09-21T01:59:51.201Z,80.94
2018-09-21T02:00:51.191Z,81.04
2018-09-21T02:01:51.181Z,81.04
2018-09-21T02:02:51.169Z,81.39
2018-09-21T02:03:51.156Z,81.49
2018-09-21T02:04:51.147Z,81.79
2018-09-21T02:05:51.139Z,81.89
2018-09-21T02:06:51.127Z,81.69
2018-09-21T02:07:51.115Z,81.49
2018-09-21T02:08:51.103Z,81.49
2018-09-21T02:09:51.092Z,81.39
2018-09-21T02:10:51.083Z,81.49
2018-09-21T02:11:51.072Z,81.89
2018-09-21T02:12:51.059Z,81.69
2018-09-21T02:13:51.049Z,81.69
2018-09-21T02:14:51.043Z,81.65
2018-09-21T02:15:51.025Z,81.55
2018-09-21T02:16:51.015Z,81.45
2018-09-21T02:17:51.007Z,81.35
2018-09-21T02:18:50.997Z,81.45
2018-09-21T02:19:50.983Z,81.25
2018-09-21T02:20:50.969Z,81.35
2018-09-21T02:21:50.960Z,81.45
2018-09-21T02:22:50.949Z,81.55
2018-09-21T02:23:50.939Z,81.86
2018-09-21T02:24:50.931Z,82.20
2018-09-21T02:25:50.915Z,82.61
2018-09-21T02:26:50.904Z,82.70
2018-09-21T02:27:50.895Z,83.22
2018-09-21T02:28:50.882Z,83.42
2018-09-21T02:29:50.873Z,83.66
2018-09-21T02:30:50.865Z,83.36
2018-09-21T02:31:50.856Z,83.15
2018-09-21T02:32:50.838Z,83.36
2018-09-21T02:33:50.830Z,83.45
2018-09-21T02:34:50.818Z,83.70
2018-09-21T02:35:50.806Z,83.80
2018-09-21T02:36:50.800Z,84.00
2018-09-21T02:37:50.784Z,83.90
2018-09-21T02:38:50.776Z,84.11
2018-09-21T02:39:50.759Z,84.31
2018-09-21T02:40:50.751Z,84.41
2018-09-21T02:41:50.740Z,84.51
2018-09-21T02:42:50.728Z,84.61
2018-09-21T02:43:50.717Z,84.51
2018-09-21T02:44:50.710Z,84.51
2018-09-21T02:45:50.698Z,84.61
2018-09-21T02:46:50.684Z,84.51
2018-09-21T02:47:50.674Z,84.51
2018-09-21T02:48:50.785Z,84.41
2018-09-21T02:49:50.651Z,84.51
2018-09-21T02:50:50.642Z,84.61
2018-09-21T02:51:50.628Z,84.58
2018-09-21T02:52:50.623Z,84.47
2018-09-21T02:53:50.608Z,84.17
2018-09-21T02:54:50.601Z,84.06
2018-09-21T02:55:50.584Z,83.97
2018-09-21T02:56:50.573Z,83.97
2018-09-21T02:57:50.562Z,83.86
2018-09-21T02:58:50.556Z,83.97
2018-09-21T02:59:50.540Z,83.76
2018-09-21T03:00:50.772Z,83.76
2018-09-21T03:01:50.521Z,83.76
2018-09-21T03:02:50.518Z,83.66
2018-09-21T03:03:50.499Z,83.56
2018-09-21T03:04:50.491Z,83.66
2018-09-21T03:05:50.475Z,84.06
2018-09-21T03:06:50.467Z,83.97
2018-09-21T03:07:50.456Z,84.17
2018-09-21T03:08:50.440Z,84.06
2018-09-21T03:09:50.432Z,84.06
2018-09-21T03:10:50.419Z,84.27
2018-09-21T03:11:50.408Z,83.97
2018-09-21T03:12:50.400Z,84.06
2018-09-21T03:13:50.388Z,83.92
2018-09-21T03:14:50.376Z,84.03
2018-09-21T03:15:50.364Z,84.23
2018-09-21T03:16:50.355Z,84.13
2018-09-21T03:17:50.343Z,84.13
2018-09-21T03:18:50.333Z,84.43
2018-09-21T03:19:50.319Z,84.03
2018-09-21T03:20:50.313Z,83.99
2018-09-21T03:21:50.298Z,83.58
2018-09-21T03:22:50.288Z,83.38
2018-09-21T03:23:50.278Z,83.38
2018-09-21T03:24:50.265Z,83.48
2018-09-21T03:25:50.257Z,83.68
2018-09-21T03:26:50.241Z,84.09
2018-09-21T03:27:50.231Z,84.19
2018-09-21T03:28:50.222Z,84.09
2018-09-21T03:29:50.209Z,83.89
2018-09-21T03:30:50.199Z,83.64
2018-09-21T03:31:50.188Z,83.75
2018-09-21T03:32:50.181Z,83.75
2018-09-21T03:33:50.171Z,83.54
2018-09-21T03:34:50.202Z,83.44
2018-09-21T03:35:50.146Z,83.40
2018-09-21T03:36:50.134Z,83.09
2018-09-21T03:37:50.124Z,82.89
2018-09-21T03:38:50.112Z,82.39
2018-09-21T03:39:50.101Z,82.18
2018-09-21T03:40:50.096Z,82.28
2018-09-21T03:41:50.093Z,82.49
2018-09-21T03:42:50.068Z,82.89
2018-09-21T03:43:50.057Z,83.00
2018-09-21T03:44:50.044Z,83.20
2018-09-21T03:45:50.040Z,82.89
2018-09-21T03:46:50.024Z,82.69
2018-09-21T03:47:50.011Z,82.55
2018-09-21T03:48:50.002Z,82.45
2018-09-21T03:49:49.989Z,82.14
2018-09-21T03:50:49.980Z,81.94
2018-09-21T03:51:49.973Z,81.84
2018-09-21T03:52:49.961Z,81.74
2018-09-21T03:53:49.947Z,81.54
2018-09-21T03:54:49.936Z,81.43
2018-09-21T03:55:49.927Z,81.74
2018-09-21T03:56:49.918Z,81.94
2018-09-21T03:57:49.902Z,81.94
2018-09-21T03:58:49.891Z,82.04
2018-09-21T03:59:49.879Z,82.04
2018-09-21T04:00:49.871Z,81.94
2018-09-21T04:01:49.857Z,82.04
2018-09-21T04:02:49.847Z,82.04
2018-09-21T04:03:49.837Z,82.14
2018-09-21T04:04:49.825Z,82.25
2018-09-21T04:05:49.813Z,82.25
2018-09-21T04:06:49.803Z,82.35
2018-09-21T04:07:49.790Z,82.35
2018-09-21T04:08:49.785Z,82.25
2018-09-21T04:09:49.772Z,82.25
2018-09-21T04:10:49.759Z,82.45
2018-09-21T04:11:49.748Z,82.35
2018-09-21T04:12:49.736Z,82.14
2018-09-21T04:13:49.727Z,82.04
2018-09-21T04:14:49.715Z,81.64
2018-09-21T04:15:49.703Z,81.64
2018-09-21T04:16:49.692Z,81.64
2018-09-21T04:17:49.683Z,81.64
2018-09-21T04:18:49.668Z,81.54
2018-09-21T04:19:49.659Z,81.54
2018-09-21T04:20:49.648Z,81.64
2018-09-21T04:21:49.641Z,81.64
2018-09-21T04:22:49.627Z,81.94
2018-09-21T04:23:49.614Z,82.04
2018-09-21T04:24:49.606Z,82.35
2018-09-21T04:25:49.594Z,82.25
2018-09-21T04:26:49.585Z,82.45
2018-09-21T04:27:49.569Z,82.35
2018-09-21T04:28:49.563Z,82.25
2018-09-21T04:29:49.561Z,82.45
2018-09-21T04:30:49.540Z,82.45
2018-09-21T04:31:49.534Z,82.51
2018-09-21T04:32:49.516Z,82.41
2018-09-21T04:33:49.506Z,82.11
2018-09-21T04:34:49.493Z,82.00
2018-09-21T04:35:49.488Z,82.21
2018-09-21T04:36:49.474Z,81.56
2018-09-21T04:37:49.460Z,81.97
2018-09-21T04:38:49.453Z,81.56
2018-09-21T04:39:49.441Z,80.92
2018-09-21T04:40:49.427Z,80.51
2018-09-21T04:41:49.417Z,80.37
2018-09-21T04:42:49.407Z,79.87
2018-09-21T04:43:49.395Z,79.46
2018-09-21T04:44:49.384Z,79.02
2018-09-21T04:45:49.394Z,78.82
2018-09-21T04:46:49.362Z,78.47
2018-09-21T04:47:49.349Z,78.07
2018-09-21T04:48:49.340Z,77.97
2018-09-21T04:49:49.328Z,77.77
2018-09-21T04:50:49.320Z,77.63
2018-09-21T04:51:49.306Z,77.53
2018-09-21T04:52:49.296Z,77.22
2018-09-21T04:53:49.287Z,76.72
2018-09-21T04:54:49.274Z,74.43
2018-09-21T04:55:49.264Z,74.29
2018-09-21T04:56:49.252Z,73.88
2018-09-21T04:57:49.241Z,73.58
2018-09-21T04:58:49.235Z,73.79
2018-09-21T04:59:49.222Z,73.88
2018-09-21T05:00:49.213Z,73.68
2018-09-21T05:01:49.198Z,73.88
2018-09-21T05:02:49.185Z,73.48
2018-09-21T05:03:49.174Z,73.68
2018-09-21T05:04:49.165Z,73.38
2018-09-21T05:05:49.153Z,72.03
2018-09-21T05:06:49.143Z,70.86
2018-09-21T05:07:49.133Z,70.22
2018-09-21T05:08:49.124Z,70.01
2018-09-21T05:09:49.112Z,70.01
2018-09-21T05:10:49.104Z,69.61
2018-09-21T05:11:49.091Z,69.72
2018-09-21T05:12:49.077Z,69.41
2018-09-21T05:13:49.143Z,69.72
2018-09-21T05:14:49.057Z,69.41
2018-09-21T05:15:49.047Z,69.21
2018-09-21T05:16:49.034Z,69.21
2018-09-21T05:17:49.026Z,69.08
2018-09-21T05:18:49.013Z,69.31
2018-09-21T05:19:49.027Z,69.31
2018-09-21T05:20:48.991Z,69.31
2018-09-21T05:21:48.979Z,69.01
2018-09-21T05:22:48.971Z,68.98
2018-09-21T05:23:48.963Z,69.08
2018-09-21T05:24:48.947Z,68.68
2018-09-21T05:25:48.939Z,68.07
2018-09-21T05:26:48.925Z,67.94
2018-09-21T05:27:48.919Z,67.74
2018-09-21T05:28:48.906Z,67.43
2018-09-21T05:29:48.897Z,67.40
2018-09-21T05:30:48.883Z,67.40
2018-09-21T05:31:48.878Z,67.00
2018-09-21T05:32:48.864Z,67.10
2018-09-21T05:33:48.855Z,66.80
2018-09-21T05:34:48.990Z,66.70
2018-09-21T05:35:48.832Z,66.57
2018-09-21T05:36:48.817Z,66.47
2018-09-21T05:37:48.811Z,67.07
2018-09-21T05:38:48.796Z,66.47
2018-09-21T05:39:48.783Z,66.36
2018-09-21T05:40:48.774Z,65.76
2018-09-21T05:41:48.762Z,65.53
2018-09-21T05:42:48.751Z,64.39
2018-09-21T05:43:48.743Z,63.46
2018-09-21T05:44:48.731Z,63.23
2018-09-21T05:45:48.727Z,62.09
2018-09-21T05:46:48.708Z,61.36
2018-09-21T05:47:48.699Z,61.36
2018-09-21T05:48:48.693Z,61.36
2018-09-21T05:49:48.676Z,61.16
2018-09-21T05:50:48.666Z,60.76
2018-09-21T05:51:48.654Z,61.06
2018-09-21T05:52:48.649Z,61.49
2018-09-21T05:53:48.643Z,61.99
2018-09-21T05:54:48.623Z,62.62
2018-09-21T05:55:48.614Z,63.26
2018-09-21T05:56:48.602Z,64.09
2018-09-21T05:57:48.591Z,64.39
2018-09-21T05:58:48.579Z,65.13
2018-09-21T05:59:48.567Z,65.43
2018-09-21T06:00:48.557Z,65.63
2018-09-21T06:01:48.549Z,65.43
2018-09-21T06:02:48.580Z,65.83
2018-09-21T06:03:48.526Z,66.03
2018-09-21T06:04:48.517Z,66.03
2018-09-21T06:05:48.503Z,65.96
2018-09-21T06:06:48.499Z,65.53
2018-09-21T06:07:48.504Z,65.53
2018-09-21T06:08:48.473Z,65.93
2018-09-21T06:09:48.459Z,66.43
2018-09-21T06:10:48.454Z,66.36
2018-09-21T06:11:48.445Z,66.87
2018-09-21T06:12:48.428Z,65.46
2018-09-21T06:13:48.491Z,66.03
2018-09-21T06:14:48.404Z,65.83
2018-09-21T06:15:48.400Z,65.93
2018-09-21T06:16:48.383Z,65.73
2018-09-21T06:17:48.379Z,65.00
2018-09-21T06:18:48.362Z,64.80
2018-09-21T06:19:48.401Z,64.80
2018-09-21T06:20:48.343Z,64.49
2018-09-21T06:21:48.331Z,65.10
2018-09-21T06:22:48.327Z,65.00
2018-09-21T06:23:48.316Z,63.96
2018-09-21T06:24:48.299Z,63.53
2018-09-21T06:25:48.291Z,64.33
2018-09-21T06:26:48.276Z,64.56
2018-09-21T06:27:48.265Z,64.56
2018-09-21T06:28:48.255Z,65.17
2018-09-21T06:29:48.245Z,65.20
2018-09-21T06:30:48.234Z,65.40
2018-09-21T06:31:48.231Z,65.40
2018-09-21T06:32:48.211Z,65.50
2018-09-21T06:33:48.302Z,65.50
2018-09-21T06:34:48.189Z,65.40
2018-09-21T06:35:48.183Z,65.60
2018-09-21T06:36:48.167Z,66.10
2018-09-21T06:37:48.156Z,66.54
2018-09-21T06:38:48.144Z,66.00
2018-09-21T06:39:48.136Z,65.80
2018-09-21T06:40:48.128Z,65.80
2018-09-21T06:41:48.111Z,65.50
2018-09-21T06:42:48.102Z,65.57
2018-09-21T06:43:48.094Z,65.36
2018-09-21T06:44:48.081Z,65.77
2018-09-21T06:45:48.068Z,65.47
2018-09-21T06:46:48.057Z,65.57
2018-09-21T06:47:48.049Z,65.47
2018-09-21T06:48:48.038Z,65.57
2018-09-21T06:49:48.032Z,65.57
2018-09-21T06:50:48.014Z,65.47
2018-09-21T06:51:48.008Z,65.77
2018-09-21T06:52:47.992Z,65.67
2018-09-21T06:53:47.982Z,66.27
2018-09-21T06:54:47.972Z,66.37
2018-09-21T06:55:47.962Z,66.71
2018-09-21T06:56:47.950Z,65.77
2018-09-21T06:57:47.940Z,65.77
2018-09-21T06:58:47.930Z,65.64
2018-09-21T06:59:47.919Z,65.44
2018-09-21T07:00:47.909Z,65.33
2018-09-21T07:01:47.971Z,65.14
2018-09-21T07:02:47.885Z,65.33
2018-09-21T07:03:47.876Z,65.24
2018-09-21T07:04:47.868Z,65.24
2018-09-21T07:05:47.853Z,64.94
2018-09-21T07:06:47.844Z,65.33
2018-09-21T07:07:47.829Z,65.44
2018-09-21T07:08:47.820Z,65.44
2018-09-21T07:09:47.818Z,65.74
2018-09-21T07:10:47.803Z,65.53
2018-09-21T07:11:47.787Z,65.53
2018-09-21T07:12:47.780Z,65.33
2018-09-21T07:13:47.766Z,65.00
2018-09-21T07:14:47.754Z,64.91
2018-09-21T07:15:47.779Z,64.30
2018-09-21T07:16:47.734Z,63.87
2018-09-21T07:17:47.726Z,64.07
2018-09-21T07:18:47.714Z,63.87
2018-09-21T07:19:47.700Z,63.77
2018-09-21T07:20:47.695Z,63.67
2018-09-21T07:21:47.679Z,63.67
2018-09-21T07:22:47.670Z,64.37
2018-09-21T07:23:47.656Z,64.17
2018-09-21T07:24:47.649Z,64.47
2018-09-21T07:25:47.639Z,63.97
2018-09-21T07:26:47.625Z,63.77
2018-09-21T07:27:47.614Z,64.57
2018-09-21T07:28:47.607Z,64.88
2018-09-21T07:29:47.595Z,64.47
2018-09-21T07:30:47.587Z,65.30
2018-09-21T07:31:47.576Z,64.50
2018-09-21T07:32:47.559Z,64.70
2018-09-21T07:33:47.553Z,63.27
2018-09-21T07:34:47.540Z,63.57
2018-09-21T07:35:47.533Z,63.77
2018-09-21T07:36:47.519Z,64.17
2018-09-21T07:37:47.510Z,63.17
2018-09-21T07:38:47.498Z,63.87
2018-09-21T07:39:47.483Z,63.47
2018-09-21T07:40:47.473Z,63.77
2018-09-21T07:41:47.466Z,62.87
2018-09-21T07:42:47.499Z,63.07
2018-09-21T07:43:47.442Z,62.54
2018-09-21T07:44:47.436Z,63.64
2018-09-21T07:45:47.421Z,62.64
2018-09-21T07:46:47.410Z,62.43
2018-09-21T07:47:47.399Z,62.43
2018-09-21T07:48:47.455Z,62.76
2018-09-21T07:49:47.378Z,62.96
2018-09-21T07:50:47.371Z,62.37
2018-09-21T07:51:47.357Z,63.07
2018-09-21T07:52:47.345Z,62.17
2018-09-21T07:53:47.335Z,62.67
2018-09-21T07:54:47.325Z,61.46
2018-09-21T07:55:47.311Z,61.84
2018-09-21T07:56:47.301Z,62.04
2018-09-21T07:57:47.290Z,61.03
2018-09-21T07:58:47.282Z,60.73
2018-09-21T07:59:47.273Z,60.53
2018-09-21T08:00:47.260Z,61.10
2018-09-21T08:01:47.247Z,61.20
2018-09-21T08:02:47.237Z,60.60
2018-09-21T08:03:47.226Z,61.01
2018-09-21T08:04:47.217Z,61.81
2018-09-21T08:05:47.203Z,60.51
2018-09-21T08:06:47.193Z,60.20
2018-09-21T08:07:47.187Z,60.03
2018-09-21T08:08:47.173Z,60.40
2018-09-21T08:09:47.160Z,60.00
2018-09-21T08:10:47.149Z,57.90
2018-09-21T08:11:47.139Z,58.60
2018-09-21T08:12:47.134Z,60.10
2018-09-21T08:13:47.117Z,59.90
2018-09-21T08:14:47.105Z,57.70
2018-09-21T08:15:47.095Z,58.80
2018-09-21T08:16:47.086Z,59.00
2018-09-21T08:17:47.075Z,58.00
2018-09-21T08:18:47.064Z,58.40
2018-09-21T08:19:47.055Z,57.90
2018-09-21T08:20:47.042Z,58.30
2018-09-21T08:21:47.029Z,57.50
2018-09-21T08:22:47.019Z,58.10
2018-09-21T08:23:47.011Z,58.40
2018-09-21T08:24:47.000Z,58.50
2018-09-21T08:25:46.990Z,57.70
2018-09-21T08:26:46.977Z,56.90
2018-09-21T08:27:46.967Z,57.60
2018-09-21T08:28:46.959Z,58.00
2018-09-21T08:29:46.946Z,56.50
2018-09-21T08:30:46.934Z,56.70
2018-09-21T08:31:46.923Z,56.59
2018-09-21T08:32:46.912Z,56.50
2018-09-21T08:33:46.902Z,57.10
2018-09-21T08:34:46.890Z,56.40
2018-09-21T08:35:46.883Z,57.00
2018-09-21T08:36:46.870Z,57.10
2018-09-21T08:37:46.857Z,57.50
2018-09-21T08:38:46.847Z,57.40
2018-09-21T08:39:46.840Z,56.90
2018-09-21T08:40:46.826Z,56.90
2018-09-21T08:41:46.815Z,57.40
2018-09-21T08:42:46.807Z,56.79
2018-09-21T08:43:46.797Z,56.50
2018-09-21T08:44:46.783Z,56.27
2018-09-21T08:45:46.776Z,56.17
2018-09-21T08:46:46.761Z,56.07
2018-09-21T08:47:46.752Z,56.57
2018-09-21T08:48:46.740Z,55.97
2018-09-21T08:49:46.731Z,55.84
2018-09-21T08:50:46.721Z,55.44
2018-09-21T08:51:46.708Z,55.74
2018-09-21T08:52:46.697Z,55.34
2018-09-21T08:53:46.688Z,55.74
2018-09-21T08:54:46.725Z,55.64
2018-09-21T08:55:46.665Z,55.74
2018-09-21T08:56:46.653Z,56.14
2018-09-21T08:57:46.643Z,56.04
2018-09-21T08:58:46.633Z,56.04
2018-09-21T08:59:46.620Z,56.14
2018-09-21T09:00:46.610Z,56.24
2018-09-21T09:01:46.598Z,56.64
2018-09-21T09:02:46.681Z,56.64
2018-09-21T09:03:46.577Z,56.74
2018-09-21T09:04:46.571Z,57.04
2018-09-21T09:05:46.556Z,57.24
2018-09-21T09:06:46.547Z,57.44
2018-09-21T09:07:46.535Z,57.37
2018-09-21T09:08:46.524Z,57.67
2018-09-21T09:09:46.513Z,57.37
2018-09-21T09:10:46.514Z,57.67
2018-09-21T09:11:46.500Z,58.77
2018-09-21T09:12:46.479Z,58.67
2018-09-21T09:13:46.470Z,57.77
2018-09-21T09:14:46.461Z,58.47
2018-09-21T09:15:46.452Z,58.87
2018-09-21T09:16:46.436Z,57.57
2018-09-21T09:17:46.426Z,56.77
2018-09-21T09:18:46.416Z,57.27
2018-09-21T09:19:46.407Z,57.27
2018-09-21T09:20:46.398Z,57.27
2018-09-21T09:21:46.383Z,57.04
2018-09-21T09:22:46.373Z,56.24
2018-09-21T09:23:46.363Z,57.04
2018-09-21T09:24:46.355Z,57.67
2018-09-21T09:25:46.339Z,57.14
2018-09-21T09:26:46.330Z,57.24
2018-09-21T09:27:46.318Z,57.74
2018-09-21T09:28:46.307Z,56.34
2018-09-21T09:29:46.301Z,56.64
2018-09-21T09:30:46.285Z,57.55
2018-09-21T09:31:46.277Z,59.05
2018-09-21T09:32:46.268Z,58.94
2018-09-21T09:33:46.252Z,57.77
2018-09-21T09:34:46.243Z,57.87
2018-09-21T09:35:46.232Z,57.77
2018-09-21T09:36:46.229Z,56.94
2018-09-21T09:37:46.209Z,57.44
2018-09-21T09:38:46.199Z,57.34
2018-09-21T09:39:46.191Z,57.74
2018-09-21T09:40:46.182Z,58.24
2018-09-21T09:41:46.166Z,59.44
2018-09-21T09:42:46.254Z,58.85
2018-09-21T09:43:46.146Z,57.14
2018-09-21T09:44:46.135Z,58.24
2018-09-21T09:45:46.125Z,56.94
2018-09-21T09:46:46.113Z,58.24
2018-09-21T09:47:46.104Z,57.97
2018-09-21T09:48:46.206Z,58.07
2018-09-21T09:49:46.081Z,56.17
2018-09-21T09:50:46.070Z,57.55
2018-09-21T09:51:46.061Z,56.74
2018-09-21T09:52:46.049Z,57.04
2018-09-21T09:53:46.041Z,58.05
2018-09-21T09:54:46.067Z,57.64
2018-09-21T09:55:46.017Z,59.97
2018-09-21T09:56:46.007Z,62.84
2018-09-21T09:57:45.995Z,65.53
2018-09-21T09:58:45.983Z,68.41
2018-09-21T09:59:45.973Z,70.19
2018-09-21T10:00:45.963Z,72.40
2018-09-21T10:01:45.955Z,73.74
2018-09-21T10:02:45.941Z,76.10
2018-09-21T10:03:46.054Z,77.14
2018-09-21T10:04:45.919Z,78.09
2018-09-21T10:05:45.906Z,79.94
2018-09-21T10:06:45.905Z,82.81
2018-09-21T10:07:45.885Z,82.24
2018-09-21T10:08:45.875Z,82.84
2018-09-21T10:09:45.868Z,83.69
2018-09-21T10:10:45.853Z,85.86
2018-09-21T10:11:45.845Z,85.80
2018-09-21T10:12:45.832Z,86.60
2018-09-21T10:13:45.819Z,85.83
2018-09-21T10:14:45.810Z,86.49
2018-09-21T10:15:45.798Z,87.40
2018-09-21T10:16:45.791Z,87.09
2018-09-21T10:17:45.778Z,86.83
2018-09-21T10:18:45.768Z,87.64
2018-09-21T10:19:45.760Z,87.84
2018-09-21T10:20:45.840Z,90.22
2018-09-21T10:21:45.739Z,88.80
2018-09-21T10:22:45.721Z,87.58
2018-09-21T10:23:45.712Z,86.81
2018-09-21T10:24:45.703Z,86.91
2018-09-21T10:25:45.690Z,88.74
2018-09-21T10:26:45.755Z,89.85
2018-09-21T10:27:45.893Z,87.62
2018-09-21T10:28:45.905Z,86.91
2018-09-21T10:29:45.646Z,87.26
2018-09-21T10:30:45.633Z,88.58
2018-09-21T10:31:45.625Z,88.82
2018-09-21T10:32:45.614Z,88.72
2018-09-21T10:33:45.743Z,89.63
2018-09-21T10:34:45.589Z,90.44
2018-09-21T10:35:45.583Z,88.62
2018-09-21T10:36:45.568Z,90.35
2018-09-21T10:37:45.557Z,88.66
2018-09-21T10:38:45.546Z,89.98
2018-09-21T10:39:45.538Z,89.58
2018-09-21T10:40:45.555Z,90.39
2018-09-21T10:41:45.514Z,87.38
2018-09-21T10:42:45.655Z,88.60
2018-09-21T10:43:45.491Z,89.27
2018-09-21T10:44:45.486Z,90.33
2018-09-21T10:45:45.470Z,89.78
2018-09-21T10:46:45.459Z,88.40
2018-09-21T10:47:45.451Z,87.58
2018-09-21T10:48:45.436Z,88.40
2018-09-21T10:49:45.422Z,88.74
2018-09-21T10:50:45.415Z,89.25
2018-09-21T10:51:45.400Z,90.37
2018-09-21T10:52:45.449Z,90.57
2018-09-21T10:53:45.385Z,88.50
2018-09-21T10:54:45.367Z,87.38
2018-09-21T10:55:45.358Z,86.87
2018-09-21T10:56:45.348Z,88.09
2018-09-21T10:57:45.337Z,88.50
2018-09-21T10:58:45.454Z,88.80
2018-09-21T10:59:45.313Z,88.40
2018-09-21T11:00:45.305Z,86.77
2018-09-21T11:01:45.293Z,88.70
2018-09-21T11:02:45.279Z,89.21
2018-09-21T11:03:45.269Z,89.41
2018-09-21T11:04:45.260Z,90.83
2018-09-21T11:05:45.248Z,88.66
2018-09-21T11:06:45.239Z,87.64
2018-09-21T11:07:45.226Z,88.15
2018-09-21T11:08:45.215Z,87.04
2018-09-21T11:09:45.202Z,85.82
2018-09-21T11:10:45.195Z,86.32
2018-09-21T11:11:45.181Z,86.43
2018-09-21T11:12:45.173Z,88.15
2018-09-21T11:13:45.160Z,87.85
2018-09-21T11:14:45.149Z,87.64
2018-09-21T11:15:45.138Z,86.12
2018-09-21T11:16:45.127Z,86.83
2018-09-21T11:17:45.120Z,87.34
2018-09-21T11:18:45.106Z,88.01
2018-09-21T11:19:45.094Z,88.31
2018-09-21T11:20:45.084Z,88.21
2018-09-21T11:21:45.071Z,87.70
2018-09-21T11:22:45.061Z,85.37
2018-09-21T11:23:45.051Z,86.59
2018-09-21T11:24:45.042Z,87.20
2018-09-21T11:25:45.027Z,88.31
2018-09-21T11:26:45.021Z,87.91
2018-09-21T11:27:45.006Z,86.95
2018-09-21T11:28:44.995Z,87.56
2018-09-21T11:29:44.986Z,86.99
2018-09-21T11:30:44.971Z,88.31
2018-09-21T11:31:44.961Z,88.62
2018-09-21T11:32:44.954Z,89.63
2018-09-21T11:33:44.940Z,86.79
2018-09-21T11:34:44.928Z,88.01
2018-09-21T11:35:44.918Z,89.43
2018-09-21T11:36:44.909Z,89.23
2018-09-21T11:37:44.894Z,89.59
2018-09-21T11:38:44.887Z,87.91
2018-09-21T11:39:44.875Z,89.43
2018-09-21T11:40:44.863Z,89.53
2018-09-21T11:41:44.852Z,89.84
2018-09-21T11:42:44.841Z,89.63
2018-09-21T11:43:44.829Z,89.33
2018-09-21T11:44:44.820Z,87.70
2018-09-21T11:45:44.810Z,89.53
2018-09-21T11:46:44.856Z,90.24
2018-09-21T11:47:44.831Z,90.65
2018-09-21T11:48:44.776Z,90.44
2018-09-21T11:49:44.763Z,89.63
2018-09-21T11:50:44.752Z,89.43
2018-09-21T11:51:44.745Z,89.73
2018-09-21T11:52:44.731Z,86.99
2018-09-21T11:53:44.721Z,87.54
2018-09-21T11:54:44.710Z,88.25
2018-09-21T11:55:44.700Z,89.06
2018-09-21T11:56:44.685Z,90.28
2018-09-21T11:57:44.675Z,89.98
2018-09-21T11:58:44.663Z,89.67
2018-09-21T11:59:44.655Z,89.94
2018-09-21T12:00:44.643Z,89.23
2018-09-21T12:01:44.668Z,89.53
2018-09-21T12:02:44.621Z,89.33
2018-09-21T12:03:44.612Z,89.12
2018-09-21T12:04:44.599Z,89.12
2018-09-21T12:05:44.591Z,88.88
2018-09-21T12:06:44.575Z,89.59
2018-09-21T12:07:44.572Z,88.58
2018-09-21T12:08:44.556Z,87.46
2018-09-21T12:09:44.545Z,87.56
2018-09-21T12:10:44.533Z,89.29
2018-09-21T12:11:44.525Z,89.29
2018-09-21T12:12:44.510Z,88.98
2018-09-21T12:13:44.499Z,87.26
2018-09-21T12:14:44.489Z,88.27
2018-09-21T12:15:44.482Z,87.46
2018-09-21T12:16:44.467Z,88.78
2018-09-21T12:17:44.456Z,88.58
2018-09-21T12:18:44.445Z,88.78
2018-09-21T12:19:44.437Z,88.48
2018-09-21T12:20:44.424Z,88.68
2018-09-21T12:21:44.411Z,89.49
2018-09-21T12:22:44.429Z,87.91
2018-09-21T12:23:44.394Z,87.40
2018-09-21T12:24:44.379Z,87.70
2018-09-21T12:25:44.369Z,88.11
2018-09-21T12:26:44.357Z,89.73
2018-09-21T12:27:44.346Z,87.56
2018-09-21T12:28:44.337Z,87.15
2018-09-21T12:29:44.324Z,86.14
2018-09-21T12:30:44.317Z,86.40
2018-09-21T12:31:44.307Z,85.69
2018-09-21T12:32:44.294Z,86.37
2018-09-21T12:33:44.284Z,84.85
2018-09-21T12:34:44.274Z,85.05
2018-09-21T12:35:44.259Z,84.64
2018-09-21T12:36:44.246Z,85.00
2018-09-21T12:37:44.236Z,84.54
2018-09-21T12:38:44.267Z,85.11
2018-09-21T12:39:44.215Z,84.60
2018-09-21T12:40:44.208Z,84.80
2018-09-21T12:41:44.194Z,86.22
2018-09-21T12:42:44.183Z,84.19
2018-09-21T12:43:44.172Z,83.34
2018-09-21T12:44:44.216Z,85.07
2018-09-21T12:45:44.154Z,84.36
2018-09-21T12:46:44.138Z,85.17
2018-09-21T12:47:44.129Z,84.16
2018-09-21T12:48:44.116Z,84.60
2018-09-21T12:49:44.107Z,83.79
2018-09-21T12:50:44.188Z,84.34
2018-09-21T12:51:44.083Z,85.96
2018-09-21T12:52:44.075Z,85.05